sensor_id;sensor_type;location;lat;lon;timestamp;temperature;humidity
1107;DHT22;540;49.448;8.612;2024-03-02T00:01:52;8.80;99.90
1107;DHT22;540;49.448;8.612;2024-03-02T00:04:20;8.70;99.90
1107;DHT22;540;49.448;8.612;2024-03-02T00:06:49;8.80;99.90
1107;DHT22;540;49.448;8.612;2024-03-02T00:09:18;8.80;99.90
1107;DHT22;540;49.448;8.612;2024-03-02T00:11:46;8.50;99.90
1107;DHT22;540;49.448;8.612;2024-03-02T00:14:16;8.80;99.90
1107;DHT22;540;49.448;8.612;2024-03-02T00:16:43;8.50;99.90
1107;DHT22;540;49.448;8.612;2024-03-02T00:19:11;8.30;99.90
1107;DHT22;540;49.448;8.612;2024-03-02T00:21:40;8.40;99.90
1107;DHT22;540;49.448;8.612;2024-03-02T00:24:17;8.30;99.90
1107;DHT22;540;49.448;8.612;2024-03-02T00:26:46;8.50;99.90
1107;DHT22;540;49.448;8.612;2024-03-02T00:29:16;7.90;99.90
1107;DHT22;540;49.448;8.612;2024-03-02T00:31:45;7.80;99.90
1107;DHT22;540;49.448;8.612;2024-03-02T00:34:15;7.70;99.90
1107;DHT22;540;49.448;8.612;2024-03-02T00:36:45;7.90;99.90
1107;DHT22;540;49.448;8.612;2024-03-02T00:39:15;7.80;99.90
1107;DHT22;540;49.448;8.612;2024-03-02T00:41:44;7.70;99.90
1107;DHT22;540;49.448;8.612;2024-03-02T00:44:13;7.90;99.90
1107;DHT22;540;49.448;8.612;2024-03-02T00:46:42;7.70;99.90
1107;DHT22;540;49.448;8.612;2024-03-02T00:49:16;7.70;99.90
1107;DHT22;540;49.448;8.612;2024-03-02T00:51:47;7.80;99.90
1107;DHT22;540;49.448;8.612;2024-03-02T00:54:19;7.90;99.90
1107;DHT22;540;49.448;8.612;2024-03-02T00:56:48;7.50;99.90
1107;DHT22;540;49.448;8.612;2024-03-02T00:59:16;7.70;99.90
1107;DHT22;540;49.448;8.612;2024-03-02T01:01:45;7.50;99.90
1107;DHT22;540;49.448;8.612;2024-03-02T01:04:13;7.80;99.90
1107;DHT22;540;49.448;8.612;2024-03-02T01:06:42;7.60;99.90
1107;DHT22;540;49.448;8.612;2024-03-02T01:09:10;6.90;99.90
1107;DHT22;540;49.448;8.612;2024-03-02T01:11:39;7.50;99.90
1107;DHT22;540;49.448;8.612;2024-03-02T01:14:07;7.30;99.90
1107;DHT22;540;49.448;8.612;2024-03-02T01:16:35;7.40;99.90
1107;DHT22;540;49.448;8.612;2024-03-02T01:19:04;7.50;99.90
1107;DHT22;540;49.448;8.612;2024-03-02T01:21:32;7.50;99.90
1107;DHT22;540;49.448;8.612;2024-03-02T01:24:00;7.30;99.90
1107;DHT22;540;49.448;8.612;2024-03-02T01:26:28;7.30;99.90
1107;DHT22;540;49.448;8.612;2024-03-02T01:28:59;7.10;99.90
1107;DHT22;540;49.448;8.612;2024-03-02T01:31:26;7.20;99.90
1107;DHT22;540;49.448;8.612;2024-03-02T01:33:54;7.30;99.90
1107;DHT22;540;49.448;8.612;2024-03-02T01:36:23;7.20;99.90
1107;DHT22;540;49.448;8.612;2024-03-02T01:38:51;7.00;99.90
1107;DHT22;540;49.448;8.612;2024-03-02T01:41:19;7.20;99.90
1107;DHT22;540;49.448;8.612;2024-03-02T01:43:47;7.30;99.90
1107;DHT22;540;49.448;8.612;2024-03-02T01:46:15;7.20;99.90
1107;DHT22;540;49.448;8.612;2024-03-02T01:48:43;7.30;99.90
1107;DHT22;540;49.448;8.612;2024-03-02T01:51:11;7.40;99.90
1107;DHT22;540;49.448;8.612;2024-03-02T01:53:40;6.90;99.90
1107;DHT22;540;49.448;8.612;2024-03-02T01:56:08;7.40;99.90
1107;DHT22;540;49.448;8.612;2024-03-02T01:58:36;7.40;99.90
1107;DHT22;540;49.448;8.612;2024-03-02T02:01:04;7.20;99.90
1107;DHT22;540;49.448;8.612;2024-03-02T02:03:32;7.20;99.90
1107;DHT22;540;49.448;8.612;2024-03-02T02:06:00;7.20;99.90
1107;DHT22;540;49.448;8.612;2024-03-02T02:08:27;7.10;99.90
1107;DHT22;540;49.448;8.612;2024-03-02T02:10:57;7.00;99.90
1107;DHT22;540;49.448;8.612;2024-03-02T02:13:25;7.10;99.90
1107;DHT22;540;49.448;8.612;2024-03-02T02:15:53;7.50;99.90
1107;DHT22;540;49.448;8.612;2024-03-02T02:18:21;7.40;99.90
1107;DHT22;540;49.448;8.612;2024-03-02T02:20:49;7.20;99.90
1107;DHT22;540;49.448;8.612;2024-03-02T02:23:18;7.40;99.90
1107;DHT22;540;49.448;8.612;2024-03-02T02:25:46;7.50;99.90
1107;DHT22;540;49.448;8.612;2024-03-02T02:28:14;7.30;99.90
1107;DHT22;540;49.448;8.612;2024-03-02T02:30:42;7.50;99.90
1107;DHT22;540;49.448;8.612;2024-03-02T02:33:10;7.30;99.90
1107;DHT22;540;49.448;8.612;2024-03-02T02:35:38;7.50;99.90
1107;DHT22;540;49.448;8.612;2024-03-02T02:38:06;7.20;99.90
1107;DHT22;540;49.448;8.612;2024-03-02T02:40:35;7.50;99.90
1107;DHT22;540;49.448;8.612;2024-03-02T02:43:03;7.20;99.90
1107;DHT22;540;49.448;8.612;2024-03-02T02:45:31;6.90;99.90
1107;DHT22;540;49.448;8.612;2024-03-02T02:47:59;6.50;99.90
1107;DHT22;540;49.448;8.612;2024-03-02T02:50:28;6.90;99.90
1107;DHT22;540;49.448;8.612;2024-03-02T02:52:56;6.80;99.90
1107;DHT22;540;49.448;8.612;2024-03-02T02:55:24;6.70;99.90
1107;DHT22;540;49.448;8.612;2024-03-02T02:57:53;6.50;99.90
1107;DHT22;540;49.448;8.612;2024-03-02T03:00:21;6.80;99.90
1107;DHT22;540;49.448;8.612;2024-03-02T03:02:49;6.70;99.90
1107;DHT22;540;49.448;8.612;2024-03-02T03:05:18;6.70;99.90
1107;DHT22;540;49.448;8.612;2024-03-02T03:07:46;6.60;99.90
1107;DHT22;540;49.448;8.612;2024-03-02T03:10:17;6.40;99.90
1107;DHT22;540;49.448;8.612;2024-03-02T03:12:45;6.40;99.90
1107;DHT22;540;49.448;8.612;2024-03-02T03:15:15;6.60;99.90
1107;DHT22;540;49.448;8.612;2024-03-02T03:17:44;6.60;99.90
1107;DHT22;540;49.448;8.612;2024-03-02T03:20:13;6.80;99.90
1107;DHT22;540;49.448;8.612;2024-03-02T03:22:42;6.60;99.90
1107;DHT22;540;49.448;8.612;2024-03-02T03:25:10;6.10;99.90
1107;DHT22;540;49.448;8.612;2024-03-02T03:27:37;6.60;99.90
1107;DHT22;540;49.448;8.612;2024-03-02T03:30:06;6.60;99.90
1107;DHT22;540;49.448;8.612;2024-03-02T03:32:36;6.90;99.90
1107;DHT22;540;49.448;8.612;2024-03-02T03:35:05;7.00;99.90
1107;DHT22;540;49.448;8.612;2024-03-02T03:37:33;6.70;99.90
1107;DHT22;540;49.448;8.612;2024-03-02T03:40:02;6.90;99.90
1107;DHT22;540;49.448;8.612;2024-03-02T03:42:34;6.90;99.90
1107;DHT22;540;49.448;8.612;2024-03-02T03:45:02;6.10;99.90
1107;DHT22;540;49.448;8.612;2024-03-02T03:47:31;6.60;99.90
1107;DHT22;540;49.448;8.612;2024-03-02T03:50:00;6.70;99.90
1107;DHT22;540;49.448;8.612;2024-03-02T03:52:31;6.60;99.90
1107;DHT22;540;49.448;8.612;2024-03-02T03:54:59;6.60;99.90
1107;DHT22;540;49.448;8.612;2024-03-02T03:57:27;6.60;99.90
1107;DHT22;540;49.448;8.612;2024-03-02T03:59:55;6.70;99.90
1107;DHT22;540;49.448;8.612;2024-03-02T04:02:23;6.60;99.90
1107;DHT22;540;49.448;8.612;2024-03-02T04:04:51;6.70;99.90
1107;DHT22;540;49.448;8.612;2024-03-02T04:07:20;6.70;99.90
1107;DHT22;540;49.448;8.612;2024-03-02T04:09:48;6.80;99.90
1107;DHT22;540;49.448;8.612;2024-03-02T04:12:16;6.70;99.90
1107;DHT22;540;49.448;8.612;2024-03-02T04:14:43;6.80;99.90
1107;DHT22;540;49.448;8.612;2024-03-02T04:17:11;6.80;99.90
1107;DHT22;540;49.448;8.612;2024-03-02T04:19:39;6.80;99.90
1107;DHT22;540;49.448;8.612;2024-03-02T04:22:07;6.90;99.90
1107;DHT22;540;49.448;8.612;2024-03-02T04:24:48;7.00;99.90
1107;DHT22;540;49.448;8.612;2024-03-02T04:27:16;7.20;99.90
1107;DHT22;540;49.448;8.612;2024-03-02T04:29:44;7.10;99.90
1107;DHT22;540;49.448;8.612;2024-03-02T04:32:11;7.20;99.90
1107;DHT22;540;49.448;8.612;2024-03-02T04:34:39;7.20;99.90
1107;DHT22;540;49.448;8.612;2024-03-02T04:37:07;7.40;99.90
1107;DHT22;540;49.448;8.612;2024-03-02T04:39:35;7.10;99.90
1107;DHT22;540;49.448;8.612;2024-03-02T04:42:05;7.30;99.90
1107;DHT22;540;49.448;8.612;2024-03-02T04:44:32;7.20;99.90
1107;DHT22;540;49.448;8.612;2024-03-02T04:47:00;7.20;99.90
1107;DHT22;540;49.448;8.612;2024-03-02T04:49:28;7.00;99.90
1107;DHT22;540;49.448;8.612;2024-03-02T04:51:56;7.40;99.90
1107;DHT22;540;49.448;8.612;2024-03-02T04:54:24;7.10;99.90
1107;DHT22;540;49.448;8.612;2024-03-02T04:56:52;7.30;99.90
1107;DHT22;540;49.448;8.612;2024-03-02T04:59:22;7.30;99.90
1107;DHT22;540;49.448;8.612;2024-03-02T05:01:50;7.10;99.90
1107;DHT22;540;49.448;8.612;2024-03-02T05:04:18;7.30;99.90
1107;DHT22;540;49.448;8.612;2024-03-02T05:06:45;6.90;99.90
1107;DHT22;540;49.448;8.612;2024-03-02T05:09:20;6.80;99.90
1107;DHT22;540;49.448;8.612;2024-03-02T05:11:48;6.90;99.90
1107;DHT22;540;49.448;8.612;2024-03-02T05:14:50;6.80;99.90
1107;DHT22;540;49.448;8.612;2024-03-02T05:17:18;6.50;99.90
1107;DHT22;540;49.448;8.612;2024-03-02T05:19:46;6.70;99.90
1107;DHT22;540;49.448;8.612;2024-03-02T05:22:14;6.50;99.90
1107;DHT22;540;49.448;8.612;2024-03-02T05:24:43;6.70;99.90
1107;DHT22;540;49.448;8.612;2024-03-02T05:27:11;6.50;99.90
1107;DHT22;540;49.448;8.612;2024-03-02T05:29:38;6.30;99.90
1107;DHT22;540;49.448;8.612;2024-03-02T05:32:08;6.30;99.90
1107;DHT22;540;49.448;8.612;2024-03-02T05:34:35;5.90;99.90
1107;DHT22;540;49.448;8.612;2024-03-02T05:37:03;6.50;99.90
1107;DHT22;540;49.448;8.612;2024-03-02T05:39:31;6.40;99.90
1107;DHT22;540;49.448;8.612;2024-03-02T05:41:59;6.40;99.90
1107;DHT22;540;49.448;8.612;2024-03-02T05:44:27;6.60;99.90
1107;DHT22;540;49.448;8.612;2024-03-02T05:46:55;6.40;99.90
1107;DHT22;540;49.448;8.612;2024-03-02T05:49:24;6.30;99.90
1107;DHT22;540;49.448;8.612;2024-03-02T05:51:52;6.40;99.90
1107;DHT22;540;49.448;8.612;2024-03-02T05:54:20;6.60;99.90
1107;DHT22;540;49.448;8.612;2024-03-02T05:56:48;6.50;99.90
1107;DHT22;540;49.448;8.612;2024-03-02T05:59:15;6.70;99.90
1107;DHT22;540;49.448;8.612;2024-03-02T06:01:44;6.50;99.90
1107;DHT22;540;49.448;8.612;2024-03-02T06:04:13;6.60;99.90
1107;DHT22;540;49.448;8.612;2024-03-02T06:06:42;6.60;99.90
1107;DHT22;540;49.448;8.612;2024-03-02T06:09:10;6.60;99.90
1107;DHT22;540;49.448;8.612;2024-03-02T06:11:40;6.60;99.90
1107;DHT22;540;49.448;8.612;2024-03-02T06:14:08;6.60;99.90
1107;DHT22;540;49.448;8.612;2024-03-02T06:16:36;6.70;99.90
1107;DHT22;540;49.448;8.612;2024-03-02T06:19:04;6.80;99.90
1107;DHT22;540;49.448;8.612;2024-03-02T06:21:33;6.50;99.90
1107;DHT22;540;49.448;8.612;2024-03-02T06:24:03;6.60;99.90
1107;DHT22;540;49.448;8.612;2024-03-02T06:26:31;6.50;99.90
1107;DHT22;540;49.448;8.612;2024-03-02T06:28:59;6.70;99.90
1107;DHT22;540;49.448;8.612;2024-03-02T06:31:28;6.60;99.90
1107;DHT22;540;49.448;8.612;2024-03-02T06:33:56;6.60;99.90
1107;DHT22;540;49.448;8.612;2024-03-02T06:36:24;6.70;99.90
1107;DHT22;540;49.448;8.612;2024-03-02T06:38:52;6.60;99.90
1107;DHT22;540;49.448;8.612;2024-03-02T06:41:21;6.50;99.90
1107;DHT22;540;49.448;8.612;2024-03-02T06:43:49;6.50;99.90
1107;DHT22;540;49.448;8.612;2024-03-02T06:46:21;6.80;99.90
1107;DHT22;540;49.448;8.612;2024-03-02T06:48:48;6.60;99.90
1107;DHT22;540;49.448;8.612;2024-03-02T06:51:16;6.00;99.90
1107;DHT22;540;49.448;8.612;2024-03-02T06:53:44;6.30;99.90
1107;DHT22;540;49.448;8.612;2024-03-02T06:56:14;6.60;99.90
1107;DHT22;540;49.448;8.612;2024-03-02T06:58:44;6.60;99.90
1107;DHT22;540;49.448;8.612;2024-03-02T07:01:11;6.40;99.90
1107;DHT22;540;49.448;8.612;2024-03-02T07:03:39;6.70;99.90
1107;DHT22;540;49.448;8.612;2024-03-02T07:06:07;6.70;99.90
1107;DHT22;540;49.448;8.612;2024-03-02T07:08:35;6.50;99.90
1107;DHT22;540;49.448;8.612;2024-03-02T07:11:03;6.80;99.90
1107;DHT22;540;49.448;8.612;2024-03-02T07:13:31;6.80;99.90
1107;DHT22;540;49.448;8.612;2024-03-02T07:16:00;6.30;99.90
1107;DHT22;540;49.448;8.612;2024-03-02T07:18:54;6.70;99.90
1107;DHT22;540;49.448;8.612;2024-03-02T07:21:23;6.80;99.90
1107;DHT22;540;49.448;8.612;2024-03-02T07:23:51;6.70;99.90
1107;DHT22;540;49.448;8.612;2024-03-02T07:26:19;6.90;99.90
1107;DHT22;540;49.448;8.612;2024-03-02T07:28:50;7.20;99.90
1107;DHT22;540;49.448;8.612;2024-03-02T07:31:20;7.20;99.90
1107;DHT22;540;49.448;8.612;2024-03-02T07:33:47;7.00;99.90
1107;DHT22;540;49.448;8.612;2024-03-02T07:36:15;7.20;99.90
1107;DHT22;540;49.448;8.612;2024-03-02T07:38:43;6.70;99.90
1107;DHT22;540;49.448;8.612;2024-03-02T07:41:12;7.40;99.90
1107;DHT22;540;49.448;8.612;2024-03-02T07:43:40;7.70;99.90
1107;DHT22;540;49.448;8.612;2024-03-02T07:46:08;7.70;99.90
1107;DHT22;540;49.448;8.612;2024-03-02T07:48:37;8.00;99.90
1107;DHT22;540;49.448;8.612;2024-03-02T07:51:05;8.50;99.90
1107;DHT22;540;49.448;8.612;2024-03-02T07:53:33;9.80;99.90
1107;DHT22;540;49.448;8.612;2024-03-02T07:56:01;11.30;95.00
1107;DHT22;540;49.448;8.612;2024-03-02T07:58:29;12.80;89.30
1107;DHT22;540;49.448;8.612;2024-03-02T08:00:58;13.60;82.80
1107;DHT22;540;49.448;8.612;2024-03-02T08:03:28;14.20;77.90
1107;DHT22;540;49.448;8.612;2024-03-02T08:05:58;14.70;73.00
1107;DHT22;540;49.448;8.612;2024-03-02T08:08:26;15.90;70.50
1107;DHT22;540;49.448;8.612;2024-03-02T08:10:53;16.30;68.50
1107;DHT22;540;49.448;8.612;2024-03-02T08:13:25;17.20;66.50
1107;DHT22;540;49.448;8.612;2024-03-02T08:15:53;17.60;63.80
1107;DHT22;540;49.448;8.612;2024-03-02T08:18:21;17.40;62.20
1107;DHT22;540;49.448;8.612;2024-03-02T08:20:49;17.70;60.90
1107;DHT22;540;49.448;8.612;2024-03-02T08:23:18;17.10;61.30
1107;DHT22;540;49.448;8.612;2024-03-02T08:25:47;16.30;63.40
1107;DHT22;540;49.448;8.612;2024-03-02T08:28:14;16.80;65.00
1107;DHT22;540;49.448;8.612;2024-03-02T08:30:42;16.80;63.60
1107;DHT22;540;49.448;8.612;2024-03-02T08:33:10;17.00;63.50
1107;DHT22;540;49.448;8.612;2024-03-02T08:35:38;17.10;62.60
1107;DHT22;540;49.448;8.612;2024-03-02T08:38:06;16.40;62.40
1107;DHT22;540;49.448;8.612;2024-03-02T08:40:35;16.70;63.40
1107;DHT22;540;49.448;8.612;2024-03-02T08:43:03;16.20;63.00
1107;DHT22;540;49.448;8.612;2024-03-02T08:45:31;15.90;64.50
1107;DHT22;540;49.448;8.612;2024-03-02T08:48:00;15.20;66.30
1107;DHT22;540;49.448;8.612;2024-03-02T08:50:28;14.70;67.60
1107;DHT22;540;49.448;8.612;2024-03-02T08:52:56;14.60;69.40
1107;DHT22;540;49.448;8.612;2024-03-02T08:55:24;14.30;70.90
1107;DHT22;540;49.448;8.612;2024-03-02T08:57:53;14.70;72.50
1107;DHT22;540;49.448;8.612;2024-03-02T09:00:21;14.40;71.90
1107;DHT22;540;49.448;8.612;2024-03-02T09:02:51;15.10;71.40
1107;DHT22;540;49.448;8.612;2024-03-02T09:05:20;15.30;70.50
1107;DHT22;540;49.448;8.612;2024-03-02T09:07:49;15.40;68.90
1107;DHT22;540;49.448;8.612;2024-03-02T09:10:17;16.10;67.30
1107;DHT22;540;49.448;8.612;2024-03-02T09:12:46;16.70;64.20
1107;DHT22;540;49.448;8.612;2024-03-02T09:15:17;18.20;61.10
1107;DHT22;540;49.448;8.612;2024-03-02T09:17:45;19.10;57.50
1107;DHT22;540;49.448;8.612;2024-03-02T09:20:14;19.50;55.50
1107;DHT22;540;49.448;8.612;2024-03-02T09:22:44;19.90;55.00
1107;DHT22;540;49.448;8.612;2024-03-02T09:25:14;20.20;52.10
1107;DHT22;540;49.448;8.612;2024-03-02T09:27:43;20.50;50.50
1107;DHT22;540;49.448;8.612;2024-03-02T09:30:17;20.50;48.90
1107;DHT22;540;49.448;8.612;2024-03-02T09:32:46;20.70;47.90
1107;DHT22;540;49.448;8.612;2024-03-02T09:35:16;20.70;48.00
1107;DHT22;540;49.448;8.612;2024-03-02T09:37:44;20.70;48.30
1107;DHT22;540;49.448;8.612;2024-03-02T09:40:13;20.70;48.00
1107;DHT22;540;49.448;8.612;2024-03-02T09:42:43;20.50;47.10
1107;DHT22;540;49.448;8.612;2024-03-02T09:45:21;20.20;46.60
1107;DHT22;540;49.448;8.612;2024-03-02T09:47:50;19.90;47.30
1107;DHT22;540;49.448;8.612;2024-03-02T09:50:18;19.30;48.40
1107;DHT22;540;49.448;8.612;2024-03-02T09:52:48;19.80;48.80
1107;DHT22;540;49.448;8.612;2024-03-02T09:55:17;19.80;48.20
1107;DHT22;540;49.448;8.612;2024-03-02T09:57:45;20.10;48.60
1107;DHT22;540;49.448;8.612;2024-03-02T10:00:15;20.00;47.90
1107;DHT22;540;49.448;8.612;2024-03-02T10:02:45;20.00;47.90
1107;DHT22;540;49.448;8.612;2024-03-02T10:05:24;20.40;48.30
1107;DHT22;540;49.448;8.612;2024-03-02T10:07:59;20.40;47.20
1107;DHT22;540;49.448;8.612;2024-03-02T10:10:35;21.10;46.50
1107;DHT22;540;49.448;8.612;2024-03-02T10:13:07;21.70;45.90
1107;DHT22;540;49.448;8.612;2024-03-02T10:15:37;22.00;43.80
1107;DHT22;540;49.448;8.612;2024-03-02T10:18:10;21.40;43.40
1107;DHT22;540;49.448;8.612;2024-03-02T10:20:39;21.40;44.10
1107;DHT22;540;49.448;8.612;2024-03-02T10:23:12;21.40;45.90
1107;DHT22;540;49.448;8.612;2024-03-02T10:25:41;21.70;47.00
1107;DHT22;540;49.448;8.612;2024-03-02T10:28:23;21.90;46.90
1107;DHT22;540;49.448;8.612;2024-03-02T10:30:51;21.80;46.50
1107;DHT22;540;49.448;8.612;2024-03-02T10:33:21;22.00;46.00
1107;DHT22;540;49.448;8.612;2024-03-02T10:35:50;22.10;45.80
1107;DHT22;540;49.448;8.612;2024-03-02T10:38:18;22.30;45.20
1107;DHT22;540;49.448;8.612;2024-03-02T10:40:47;22.50;44.50
1107;DHT22;540;49.448;8.612;2024-03-02T10:43:15;21.80;44.70
1107;DHT22;540;49.448;8.612;2024-03-02T10:45:43;22.20;44.80
1107;DHT22;540;49.448;8.612;2024-03-02T10:48:12;22.50;44.20
1107;DHT22;540;49.448;8.612;2024-03-02T10:50:42;22.60;43.20
1107;DHT22;540;49.448;8.612;2024-03-02T10:53:10;22.50;41.00
1107;DHT22;540;49.448;8.612;2024-03-02T10:55:38;22.60;41.20
1107;DHT22;540;49.448;8.612;2024-03-02T10:58:06;22.20;41.10
1107;DHT22;540;49.448;8.612;2024-03-02T11:00:38;21.90;41.00
1107;DHT22;540;49.448;8.612;2024-03-02T11:03:07;21.90;41.60
1107;DHT22;540;49.448;8.612;2024-03-02T11:05:38;21.30;42.90
1107;DHT22;540;49.448;8.612;2024-03-02T11:08:13;21.10;43.50
1107;DHT22;540;49.448;8.612;2024-03-02T11:10:51;21.10;43.80
1107;DHT22;540;49.448;8.612;2024-03-02T11:13:22;21.30;43.70
1107;DHT22;540;49.448;8.612;2024-03-02T11:15:55;20.90;43.30
1107;DHT22;540;49.448;8.612;2024-03-02T11:18:25;20.60;42.80
1107;DHT22;540;49.448;8.612;2024-03-02T11:20:54;20.70;43.30
1107;DHT22;540;49.448;8.612;2024-03-02T11:23:31;20.60;43.40
1107;DHT22;540;49.448;8.612;2024-03-02T11:26:17;21.00;44.30
1107;DHT22;540;49.448;8.612;2024-03-02T11:28:46;20.60;43.60
1107;DHT22;540;49.448;8.612;2024-03-02T11:31:15;20.80;43.70
1107;DHT22;540;49.448;8.612;2024-03-02T11:33:42;21.10;42.50
1107;DHT22;540;49.448;8.612;2024-03-02T11:36:10;21.10;41.90
1107;DHT22;540;49.448;8.612;2024-03-02T11:38:43;21.30;42.20
1107;DHT22;540;49.448;8.612;2024-03-02T11:41:12;21.80;41.50
1107;DHT22;540;49.448;8.612;2024-03-02T11:43:42;21.50;39.60
1107;DHT22;540;49.448;8.612;2024-03-02T11:46:11;21.60;39.00
1107;DHT22;540;49.448;8.612;2024-03-02T11:48:40;21.90;38.40
1107;DHT22;540;49.448;8.612;2024-03-02T11:51:08;21.70;38.20
1107;DHT22;540;49.448;8.612;2024-03-02T11:53:38;21.30;37.20
1107;DHT22;540;49.448;8.612;2024-03-02T11:56:09;21.40;37.90
1107;DHT22;540;49.448;8.612;2024-03-02T11:58:39;21.70;38.90
1107;DHT22;540;49.448;8.612;2024-03-02T12:01:08;22.40;38.10
1107;DHT22;540;49.448;8.612;2024-03-02T12:03:36;22.20;37.00
1107;DHT22;540;49.448;8.612;2024-03-02T12:06:05;22.30;37.60
1107;DHT22;540;49.448;8.612;2024-03-02T12:08:34;22.00;37.70
1107;DHT22;540;49.448;8.612;2024-03-02T12:11:02;22.10;37.70
1107;DHT22;540;49.448;8.612;2024-03-02T12:13:32;22.50;37.70
1107;DHT22;540;49.448;8.612;2024-03-02T12:16:00;22.60;37.40
1107;DHT22;540;49.448;8.612;2024-03-02T12:18:29;22.80;37.70
1107;DHT22;540;49.448;8.612;2024-03-02T12:20:56;23.40;37.90
1107;DHT22;540;49.448;8.612;2024-03-02T12:23:25;22.80;36.20
1107;DHT22;540;49.448;8.612;2024-03-02T12:25:53;23.40;35.90
1107;DHT22;540;49.448;8.612;2024-03-02T12:28:21;23.50;35.30
1107;DHT22;540;49.448;8.612;2024-03-02T12:30:50;23.40;34.50
1107;DHT22;540;49.448;8.612;2024-03-02T12:33:19;22.70;34.10
1107;DHT22;540;49.448;8.612;2024-03-02T12:35:49;23.10;35.10
1107;DHT22;540;49.448;8.612;2024-03-02T12:38:17;22.60;35.10
1107;DHT22;540;49.448;8.612;2024-03-02T12:40:47;22.50;36.10
1107;DHT22;540;49.448;8.612;2024-03-02T12:43:15;22.40;35.50
1107;DHT22;540;49.448;8.612;2024-03-02T12:45:43;22.00;35.80
1107;DHT22;540;49.448;8.612;2024-03-02T12:48:13;22.00;35.70
1107;DHT22;540;49.448;8.612;2024-03-02T12:50:42;21.80;36.10
1107;DHT22;540;49.448;8.612;2024-03-02T12:53:14;21.90;36.90
1107;DHT22;540;49.448;8.612;2024-03-02T12:55:43;20.80;37.40
1107;DHT22;540;49.448;8.612;2024-03-02T12:58:17;20.80;38.90
1107;DHT22;540;49.448;8.612;2024-03-02T13:00:45;21.40;39.30
1107;DHT22;540;49.448;8.612;2024-03-02T13:03:14;21.50;38.90
1107;DHT22;540;49.448;8.612;2024-03-02T13:05:48;21.50;38.60
1107;DHT22;540;49.448;8.612;2024-03-02T13:08:16;21.20;39.40
1107;DHT22;540;49.448;8.612;2024-03-02T13:10:44;20.90;39.70
1107;DHT22;540;49.448;8.612;2024-03-02T13:13:12;21.10;40.30
1107;DHT22;540;49.448;8.612;2024-03-02T13:15:41;21.10;40.70
1107;DHT22;540;49.448;8.612;2024-03-02T13:18:09;21.00;41.10
1107;DHT22;540;49.448;8.612;2024-03-02T13:20:39;20.80;41.50
1107;DHT22;540;49.448;8.612;2024-03-02T13:23:07;21.30;41.70
1107;DHT22;540;49.448;8.612;2024-03-02T13:25:35;21.10;40.40
1107;DHT22;540;49.448;8.612;2024-03-02T13:28:03;21.10;41.10
1107;DHT22;540;49.448;8.612;2024-03-02T13:30:32;20.90;41.60
1107;DHT22;540;49.448;8.612;2024-03-02T13:33:01;21.40;41.70
1107;DHT22;540;49.448;8.612;2024-03-02T13:35:29;20.90;40.90
1107;DHT22;540;49.448;8.612;2024-03-02T13:37:58;21.00;40.90
1107;DHT22;540;49.448;8.612;2024-03-02T13:40:26;20.80;40.80
1107;DHT22;540;49.448;8.612;2024-03-02T13:42:54;21.00;40.90
1107;DHT22;540;49.448;8.612;2024-03-02T13:45:22;20.50;41.30
1107;DHT22;540;49.448;8.612;2024-03-02T13:47:50;20.90;41.90
1107;DHT22;540;49.448;8.612;2024-03-02T13:50:18;20.30;42.10
1107;DHT22;540;49.448;8.612;2024-03-02T13:52:46;20.10;42.40
1107;DHT22;540;49.448;8.612;2024-03-02T13:55:15;19.70;42.70
1107;DHT22;540;49.448;8.612;2024-03-02T13:57:43;19.90;42.90
1107;DHT22;540;49.448;8.612;2024-03-02T14:00:12;19.90;42.90
1107;DHT22;540;49.448;8.612;2024-03-02T14:02:40;19.80;43.00
1107;DHT22;540;49.448;8.612;2024-03-02T14:05:08;19.90;43.10
1107;DHT22;540;49.448;8.612;2024-03-02T14:07:38;19.50;43.80
1107;DHT22;540;49.448;8.612;2024-03-02T14:10:06;19.50;44.30
1107;DHT22;540;49.448;8.612;2024-03-02T14:12:36;19.30;44.60
1107;DHT22;540;49.448;8.612;2024-03-02T14:15:05;18.80;44.50
1107;DHT22;540;49.448;8.612;2024-03-02T14:17:34;18.60;45.70
1107;DHT22;540;49.448;8.612;2024-03-02T14:20:03;18.20;46.60
1107;DHT22;540;49.448;8.612;2024-03-02T14:22:31;17.70;48.00
1107;DHT22;540;49.448;8.612;2024-03-02T14:25:00;17.60;48.70
1107;DHT22;540;49.448;8.612;2024-03-02T14:27:28;17.20;48.30
1107;DHT22;540;49.448;8.612;2024-03-02T14:30:17;17.30;48.60
1107;DHT22;540;49.448;8.612;2024-03-02T14:32:45;16.80;48.90
1107;DHT22;540;49.448;8.612;2024-03-02T14:35:13;17.30;48.90
1107;DHT22;540;49.448;8.612;2024-03-02T14:37:41;17.20;48.60
1107;DHT22;540;49.448;8.612;2024-03-02T14:40:11;17.20;48.80
1107;DHT22;540;49.448;8.612;2024-03-02T14:42:40;17.20;48.40
1107;DHT22;540;49.448;8.612;2024-03-02T14:45:09;17.30;48.60
1107;DHT22;540;49.448;8.612;2024-03-02T14:47:38;17.20;49.00
1107;DHT22;540;49.448;8.612;2024-03-02T14:50:06;17.30;48.80
1107;DHT22;540;49.448;8.612;2024-03-02T14:52:36;17.20;48.70
1107;DHT22;540;49.448;8.612;2024-03-02T14:55:05;17.40;49.00
1107;DHT22;540;49.448;8.612;2024-03-02T14:57:34;17.50;49.30
1107;DHT22;540;49.448;8.612;2024-03-02T15:00:03;17.50;49.10
1107;DHT22;540;49.448;8.612;2024-03-02T15:02:34;17.50;49.00
1107;DHT22;540;49.448;8.612;2024-03-02T15:05:03;17.00;48.90
1107;DHT22;540;49.448;8.612;2024-03-02T15:07:32;17.10;49.00
1107;DHT22;540;49.448;8.612;2024-03-02T15:10:00;17.30;49.40
1107;DHT22;540;49.448;8.612;2024-03-02T15:12:28;17.20;49.80
1107;DHT22;540;49.448;8.612;2024-03-02T15:14:56;16.90;50.40
1107;DHT22;540;49.448;8.612;2024-03-02T15:17:25;16.80;50.70
1107;DHT22;540;49.448;8.612;2024-03-02T15:19:53;17.00;51.30
1107;DHT22;540;49.448;8.612;2024-03-02T15:22:22;16.80;51.00
1107;DHT22;540;49.448;8.612;2024-03-02T15:24:50;16.50;51.30
1107;DHT22;540;49.448;8.612;2024-03-02T15:27:17;16.40;51.80
1107;DHT22;540;49.448;8.612;2024-03-02T15:29:45;16.20;51.90
1107;DHT22;540;49.448;8.612;2024-03-02T15:32:14;16.10;51.90
1107;DHT22;540;49.448;8.612;2024-03-02T15:34:42;15.90;52.20
1107;DHT22;540;49.448;8.612;2024-03-02T15:37:11;15.70;52.30
1107;DHT22;540;49.448;8.612;2024-03-02T15:39:40;15.60;52.40
1107;DHT22;540;49.448;8.612;2024-03-02T15:42:38;15.70;52.90
1107;DHT22;540;49.448;8.612;2024-03-02T15:45:23;15.50;53.50
1107;DHT22;540;49.448;8.612;2024-03-02T15:47:52;15.60;53.70
1107;DHT22;540;49.448;8.612;2024-03-02T15:50:20;15.80;54.00
1107;DHT22;540;49.448;8.612;2024-03-02T15:52:48;15.90;54.30
1107;DHT22;540;49.448;8.612;2024-03-02T15:55:17;15.60;54.00
1107;DHT22;540;49.448;8.612;2024-03-02T15:57:45;15.50;53.90
1107;DHT22;540;49.448;8.612;2024-03-02T16:00:13;15.60;54.20
1107;DHT22;540;49.448;8.612;2024-03-02T16:02:44;15.40;54.50
1107;DHT22;540;49.448;8.612;2024-03-02T16:05:12;15.50;55.10
1107;DHT22;540;49.448;8.612;2024-03-02T16:07:40;15.50;55.70
1107;DHT22;540;49.448;8.612;2024-03-02T16:10:08;15.20;55.70
1107;DHT22;540;49.448;8.612;2024-03-02T16:12:38;15.10;55.90
1107;DHT22;540;49.448;8.612;2024-03-02T16:15:07;15.20;56.20
1107;DHT22;540;49.448;8.612;2024-03-02T16:17:35;15.00;56.20
1107;DHT22;540;49.448;8.612;2024-03-02T16:20:04;15.00;56.20
1107;DHT22;540;49.448;8.612;2024-03-02T16:22:33;15.00;56.30
1107;DHT22;540;49.448;8.612;2024-03-02T16:25:00;15.10;56.70
1107;DHT22;540;49.448;8.612;2024-03-02T16:27:28;15.10;56.90
1107;DHT22;540;49.448;8.612;2024-03-02T16:29:57;14.90;57.20
1107;DHT22;540;49.448;8.612;2024-03-02T16:32:26;14.70;57.40
1107;DHT22;540;49.448;8.612;2024-03-02T16:34:54;14.70;57.70
1107;DHT22;540;49.448;8.612;2024-03-02T16:37:22;14.80;58.00
1107;DHT22;540;49.448;8.612;2024-03-02T16:39:51;14.90;58.20